createdAt,value
2023-08-02T00:01:33.975Z,100.00
2023-08-02T00:06:36.994Z,100.00
2023-08-02T00:11:39.924Z,100.00
2023-08-02T00:16:43.074Z,100.00
2023-08-02T00:21:46.356Z,100.00
2023-08-02T00:26:50.594Z,100.00
2023-08-02T00:31:53.507Z,100.00
2023-08-02T00:36:56.379Z,100.00
2023-08-02T00:41:59.227Z,100.00
2023-08-02T00:47:02.266Z,100.00
2023-08-02T00:52:06.551Z,100.00
2023-08-02T00:57:10.636Z,100.00
2023-08-02T01:02:13.516Z,100.00
2023-08-02T01:07:52.104Z,100.00
2023-08-02T01:12:55.578Z,100.00
2023-08-02T01:17:58.598Z,100.00
2023-08-02T01:23:01.555Z,100.00
2023-08-02T01:28:07.287Z,100.00
2023-08-02T01:33:10.269Z,100.00
2023-08-02T01:38:13.284Z,100.00
2023-08-02T01:43:16.173Z,100.00
2023-08-02T01:48:19.059Z,100.00
2023-08-02T01:53:21.950Z,100.00
2023-08-02T01:58:24.890Z,100.00
2023-08-02T02:03:28.072Z,100.00
2023-08-02T02:08:31.095Z,100.00
2023-08-02T02:13:33.963Z,100.00
2023-08-02T02:18:36.754Z,100.00
2023-08-02T02:23:39.700Z,100.00
2023-08-02T02:28:42.549Z,100.00
2023-08-02T02:33:45.427Z,100.00
2023-08-02T02:38:49.927Z,100.00
2023-08-02T02:43:52.787Z,100.00
2023-08-02T02:48:56.107Z,100.00
2023-08-02T02:53:58.965Z,100.00
2023-08-02T02:59:01.849Z,100.00
2023-08-02T03:04:04.907Z,100.00
2023-08-02T03:09:08.462Z,100.00
2023-08-02T03:14:11.557Z,100.00
2023-08-02T03:19:14.488Z,100.00
2023-08-02T03:24:17.479Z,100.00
2023-08-02T03:29:20.356Z,100.00
2023-08-02T03:34:23.230Z,100.00
2023-08-02T03:39:29.047Z,100.00
2023-08-02T03:44:32.043Z,100.00
2023-08-02T03:49:36.990Z,100.00
2023-08-02T03:54:39.899Z,100.00
2023-08-02T03:59:42.767Z,100.00
2023-08-02T04:04:45.638Z,100.00
2023-08-02T04:09:48.857Z,100.00
2023-08-02T04:14:51.724Z,100.00
2023-08-02T04:19:54.594Z,100.00
2023-08-02T04:24:57.480Z,100.00
2023-08-02T04:30:00.688Z,100.00
2023-08-02T04:35:03.990Z,100.00
2023-08-02T04:40:08.313Z,100.00
2023-08-02T04:45:11.668Z,100.00
2023-08-02T04:50:14.585Z,100.00
2023-08-02T04:55:17.528Z,100.00
2023-08-02T05:00:20.510Z,100.00
2023-08-02T05:05:25.434Z,100.00
2023-08-02T05:10:28.738Z,100.00
2023-08-02T05:15:39.235Z,100.00
2023-08-02T05:20:42.588Z,100.00
2023-08-02T05:25:45.557Z,100.00
2023-08-02T05:30:48.952Z,100.00
2023-08-02T05:35:52.014Z,100.00
2023-08-02T05:40:54.892Z,100.00
2023-08-02T05:45:58.318Z,100.00
2023-08-02T05:51:01.330Z,100.00
2023-08-02T05:56:04.565Z,100.00
2023-08-02T06:01:07.912Z,100.00
2023-08-02T06:06:11.118Z,100.00
2023-08-02T06:11:14.167Z,100.00
2023-08-02T06:16:17.413Z,100.00
2023-08-02T06:21:20.378Z,100.00
2023-08-02T06:26:23.295Z,100.00
2023-08-02T06:31:26.397Z,100.00
2023-08-02T06:36:29.490Z,100.00
2023-08-02T06:41:32.553Z,100.00
2023-08-02T06:46:35.716Z,100.00
2023-08-02T06:51:41.354Z,100.00
2023-08-02T06:56:44.840Z,100.00
2023-08-02T07:01:47.953Z,100.00
2023-08-02T07:06:50.951Z,100.00
2023-08-02T07:11:53.957Z,100.00
2023-08-02T07:16:56.984Z,100.00
2023-08-02T07:21:59.888Z,100.00
2023-08-02T07:27:02.810Z,100.00
2023-08-02T07:32:06.636Z,99.90
2023-08-02T07:37:09.490Z,99.50
2023-08-02T07:42:12.518Z,99.75
2023-08-02T07:47:15.400Z,96.24
2023-08-02T07:52:18.265Z,96.85
2023-08-02T07:57:22.997Z,93.39
2023-08-02T08:02:26.573Z,93.19
2023-08-02T08:07:29.604Z,90.98
2023-08-02T08:12:32.550Z,90.49
2023-08-02T08:17:35.520Z,89.87
2023-08-02T08:22:38.455Z,91.53
2023-08-02T08:27:41.738Z,90.62
2023-08-02T08:32:45.287Z,87.87
2023-08-02T08:37:50.556Z,89.89
2023-08-02T08:42:55.645Z,89.83
2023-08-02T08:47:58.719Z,88.23
2023-08-02T08:53:03.034Z,84.90
2023-08-02T08:58:10.970Z,81.73
2023-08-02T09:03:14.542Z,82.38
2023-08-02T09:08:18.204Z,80.08
2023-08-02T09:13:28.564Z,80.58
2023-08-02T09:18:42.492Z,77.66
2023-08-02T09:23:49.680Z,76.00
2023-08-02T09:29:07.533Z,74.09
2023-08-02T09:34:11.660Z,70.19
2023-08-02T09:39:16.131Z,63.88
2023-08-02T09:44:22.921Z,64.41
2023-08-02T09:49:26.332Z,63.17
2023-08-02T09:54:31.037Z,65.31
2023-08-02T09:59:33.923Z,67.53
2023-08-02T10:04:37.007Z,66.03
2023-08-02T10:09:39.955Z,65.91
2023-08-02T10:14:42.974Z,68.28
2023-08-02T10:19:46.376Z,64.63
2023-08-02T10:24:49.255Z,61.58
2023-08-02T10:29:53.762Z,58.82
2023-08-02T10:34:57.977Z,58.95
2023-08-02T10:40:01.218Z,61.25
2023-08-02T10:45:04.206Z,58.60
2023-08-02T10:50:07.400Z,53.69
2023-08-02T10:55:19.940Z,53.33
2023-08-02T11:00:32.406Z,53.99
2023-08-02T11:05:45.532Z,54.70
2023-08-02T11:10:53.902Z,52.86
2023-08-02T11:16:04.622Z,52.45
2023-08-02T11:21:11.885Z,59.34
2023-08-02T11:26:16.166Z,56.36
2023-08-02T11:31:29.051Z,53.76
2023-08-02T11:36:35.237Z,50.45
2023-08-02T11:41:38.198Z,43.83
2023-08-02T11:46:41.688Z,39.32
2023-08-02T11:51:44.899Z,37.19
2023-08-02T11:56:47.897Z,35.90
2023-08-02T12:01:50.800Z,40.00
2023-08-02T12:06:54.473Z,45.18
2023-08-02T12:11:57.456Z,41.61
2023-08-02T12:17:00.467Z,44.44
2023-08-02T12:22:03.693Z,46.07
2023-08-02T12:27:17.382Z,49.83
2023-08-02T12:32:27.594Z,46.55
2023-08-02T12:37:30.615Z,48.75
2023-08-02T12:42:34.533Z,46.87
2023-08-02T12:47:41.799Z,44.59
2023-08-02T12:52:44.997Z,43.01
2023-08-02T12:57:47.986Z,42.50
2023-08-02T13:02:50.983Z,44.70
2023-08-02T13:07:54.016Z,43.96
2023-08-02T13:12:57.509Z,37.90
2023-08-02T13:18:02.426Z,32.98
2023-08-02T13:23:09.778Z,29.14
2023-08-02T13:28:13.940Z,27.80
2023-08-02T13:33:19.138Z,30.36
2023-08-02T13:38:22.640Z,32.14
2023-08-02T13:43:27.170Z,33.95
2023-08-02T13:48:30.668Z,36.33
2023-08-02T13:53:34.620Z,38.00
2023-08-02T13:58:40.412Z,39.63
2023-08-02T14:03:43.351Z,40.65
2023-08-02T14:08:46.468Z,41.66
2023-08-02T14:13:49.286Z,41.37
2023-08-02T14:18:52.154Z,41.83
2023-08-02T14:23:55.108Z,41.73
2023-08-02T14:28:58.016Z,42.68
2023-08-02T14:34:00.893Z,42.70
2023-08-02T14:39:04.765Z,43.07
2023-08-02T14:44:07.698Z,41.19
2023-08-02T14:49:10.538Z,40.01
2023-08-02T14:54:14.541Z,38.42
2023-08-02T14:59:17.848Z,37.34
2023-08-02T15:04:21.330Z,37.91
2023-08-02T15:09:24.379Z,37.84
2023-08-02T15:14:27.773Z,38.55
2023-08-02T15:19:31.992Z,38.52
2023-08-02T15:24:35.260Z,38.65
2023-08-02T15:29:40.694Z,39.88
2023-08-02T15:34:44.468Z,40.54
2023-08-02T15:39:49.076Z,41.72
2023-08-02T15:45:01.694Z,42.81
2023-08-02T15:50:07.036Z,44.57
2023-08-02T15:55:10.053Z,45.70
2023-08-02T16:00:13.857Z,45.48
2023-08-02T16:05:17.310Z,47.24
2023-08-02T16:10:20.255Z,47.14
2023-08-02T16:15:23.168Z,47.39
2023-08-02T16:20:26.306Z,47.59
2023-08-02T16:25:29.615Z,47.55
2023-08-02T16:30:32.486Z,47.76
2023-08-02T16:35:35.577Z,47.17
2023-08-02T16:40:38.505Z,47.73
2023-08-02T16:45:41.405Z,47.89
2023-08-02T16:50:44.872Z,48.67
2023-08-02T16:55:47.820Z,49.55
2023-08-02T17:00:50.680Z,50.12
2023-08-02T17:05:53.853Z,50.59
2023-08-02T17:10:56.691Z,50.99
2023-08-02T17:16:03.595Z,51.95
2023-08-02T17:21:06.552Z,52.73
2023-08-02T17:26:09.481Z,53.89
2023-08-02T17:31:14.812Z,54.62
2023-08-02T17:36:19.028Z,55.62
2023-08-02T17:41:26.317Z,56.40
2023-08-02T17:46:29.283Z,57.64
2023-08-02T17:51:33.514Z,58.72
2023-08-02T17:56:36.448Z,59.21
2023-08-02T18:01:39.480Z,59.64
2023-08-02T18:06:42.440Z,60.63
2023-08-02T18:11:45.926Z,61.31
2023-08-02T18:16:48.970Z,61.63
2023-08-02T18:21:55.584Z,62.15
2023-08-02T18:26:58.535Z,63.21
2023-08-02T18:32:01.470Z,64.11
2023-08-02T18:37:04.688Z,64.29
2023-08-02T18:42:08.043Z,65.11
2023-08-02T18:47:11.000Z,65.60
2023-08-02T18:52:13.855Z,65.82
2023-08-02T18:57:16.723Z,66.78
2023-08-02T19:02:19.658Z,67.07
2023-08-02T19:07:25.686Z,67.52
2023-08-02T19:12:28.606Z,68.14
2023-08-02T19:17:37.511Z,68.56
2023-08-02T19:22:45.464Z,69.16
2023-08-02T19:27:55.080Z,69.48
2023-08-02T19:32:59.694Z,70.13
2023-08-02T19:38:05.066Z,70.27
2023-08-02T19:43:10.731Z,70.98
2023-08-02T19:48:14.505Z,71.45
2023-08-02T19:53:18.407Z,71.88
2023-08-02T19:58:22.316Z,72.17
2023-08-02T20:03:27.498Z,72.40
2023-08-02T20:08:35.547Z,72.89
2023-08-02T20:13:40.984Z,73.32
2023-08-02T20:18:46.695Z,73.65
2023-08-02T20:23:59.591Z,74.11
2023-08-02T20:29:02.738Z,74.42
2023-08-02T20:34:10.163Z,74.63
2023-08-02T20:39:16.076Z,74.91
2023-08-02T20:44:23.841Z,75.07
2023-08-02T20:49:26.735Z,75.39
2023-08-02T20:54:29.559Z,75.42
2023-08-02T20:59:32.592Z,75.86
2023-08-02T21:04:35.435Z,76.15
2023-08-02T21:09:38.636Z,76.51
2023-08-02T21:14:43.387Z,76.58
2023-08-02T21:19:47.862Z,76.62
2023-08-02T21:24:54.460Z,76.87
2023-08-02T21:29:59.004Z,76.65
2023-08-02T21:35:04.200Z,76.92
2023-08-02T21:40:17.780Z,77.02
2023-08-02T21:45:22.929Z,77.40
2023-08-02T21:50:27.099Z,77.45
2023-08-02T21:55:30.078Z,77.71
2023-08-02T22:00:35.194Z,77.99
2023-08-02T22:05:40.167Z,77.99
2023-08-02T22:10:44.885Z,78.25
2023-08-02T22:15:47.766Z,78.52
2023-08-02T22:20:51.080Z,78.72
2023-08-02T22:25:53.991Z,78.90
2023-08-02T22:30:56.879Z,79.00
2023-08-02T22:36:00.443Z,79.01
2023-08-02T22:41:04.271Z,79.02
2023-08-02T22:46:07.328Z,79.21
2023-08-02T22:51:10.682Z,79.18
2023-08-02T22:56:13.806Z,79.46
2023-08-02T23:01:17.951Z,79.49
2023-08-02T23:06:22.842Z,79.41
2023-08-02T23:11:25.984Z,79.61
2023-08-02T23:16:29.012Z,79.42
2023-08-02T23:21:36.044Z,79.45
2023-08-02T23:26:39.226Z,79.43
2023-08-02T23:31:42.584Z,79.48
2023-08-02T23:36:46.001Z,79.36
2023-08-02T23:41:48.886Z,79.57
2023-08-02T23:46:51.734Z,79.38
2023-08-02T23:51:54.564Z,79.29
2023-08-02T23:56:57.561Z,79.25
